createdAt,value
2023-05-19T00:01:31.166Z,5.47
2023-05-19T00:06:33.550Z,5.20
2023-05-19T00:11:37.223Z,5.22
2023-05-19T00:16:40.466Z,4.80
2023-05-19T00:21:42.722Z,4.28
2023-05-19T00:26:44.776Z,4.45
2023-05-19T00:31:47.281Z,4.57
2023-05-19T00:36:49.441Z,5.10
2023-05-19T00:41:51.636Z,4.65
2023-05-19T00:46:53.814Z,4.95
2023-05-19T00:51:56.167Z,4.82
2023-05-19T00:56:59.142Z,4.60
2023-05-19T01:02:02.860Z,4.45
2023-05-19T01:07:05.342Z,4.50
2023-05-19T01:12:08.136Z,4.53
2023-05-19T01:17:16.135Z,4.25
2023-05-19T01:22:42.790Z,4.00
2023-05-19T01:28:16.194Z,4.97
2023-05-19T01:33:21.095Z,4.28
2023-05-19T01:38:25.083Z,4.18
2023-05-19T01:43:27.723Z,4.50
2023-05-19T01:48:30.489Z,4.57
2023-05-19T01:53:33.153Z,4.40
2023-05-19T01:58:46.954Z,4.63
2023-05-19T02:04:08.290Z,4.57
2023-05-19T02:09:14.462Z,4.68
2023-05-19T02:14:39.017Z,4.53
2023-05-19T02:19:43.426Z,4.63
2023-05-19T02:24:46.588Z,4.78
2023-05-19T02:29:48.829Z,5.63
2023-05-19T02:34:51.348Z,4.68
2023-05-19T02:39:54.600Z,5.07
2023-05-19T02:44:56.738Z,4.78
2023-05-19T02:49:58.813Z,4.85
2023-05-19T02:55:01.141Z,5.35
2023-05-19T03:00:04.581Z,4.88
2023-05-19T03:05:08.304Z,4.18
2023-05-19T03:10:10.586Z,4.65
2023-05-19T03:15:14.929Z,5.10
2023-05-19T03:20:17.280Z,5.13
2023-05-19T03:25:19.410Z,5.47
2023-05-19T03:30:22.122Z,5.05
2023-05-19T03:35:46.828Z,5.18
2023-05-19T03:40:49.827Z,5.93
2023-05-19T03:45:52.109Z,4.95
2023-05-19T03:51:19.957Z,5.10
2023-05-19T03:56:27.461Z,6.18
2023-05-19T04:01:29.709Z,5.05
2023-05-19T04:06:33.926Z,6.28
2023-05-19T04:11:37.059Z,5.70
2023-05-19T04:16:39.197Z,4.93
2023-05-19T04:21:41.233Z,5.28
2023-05-19T04:26:46.136Z,6.55
2023-05-19T04:31:50.258Z,4.45
2023-05-19T04:36:53.509Z,5.55
2023-05-19T04:41:57.292Z,5.10
2023-05-19T04:47:00.048Z,4.88
2023-05-19T04:52:02.426Z,4.50
2023-05-19T04:57:06.657Z,5.85
2023-05-19T05:02:12.616Z,6.00
2023-05-19T05:07:15.013Z,5.55
2023-05-19T05:12:18.849Z,5.05
2023-05-19T05:17:23.266Z,5.30
2023-05-19T05:22:26.076Z,5.25
2023-05-19T05:27:29.249Z,5.95
2023-05-19T05:32:32.351Z,6.18
2023-05-19T05:37:36.844Z,6.43
2023-05-19T05:42:38.975Z,6.63
2023-05-19T05:47:41.647Z,6.57
2023-05-19T05:52:47.642Z,5.78
2023-05-19T05:57:51.703Z,6.72
2023-05-19T06:02:54.058Z,6.70
2023-05-19T06:07:56.352Z,5.47
2023-05-19T06:13:01.660Z,6.10
2023-05-19T06:18:04.235Z,6.35
2023-05-19T06:23:06.622Z,5.70
2023-05-19T06:28:08.812Z,5.63
2023-05-19T06:33:11.022Z,7.57
2023-05-19T06:38:13.632Z,6.72
2023-05-19T06:43:16.106Z,5.88
2023-05-19T06:48:30.368Z,5.40
2023-05-19T06:53:33.920Z,5.55
2023-05-19T06:58:39.426Z,6.72
2023-05-19T07:03:41.956Z,6.50
2023-05-19T07:08:46.233Z,5.18
2023-05-19T07:13:49.001Z,5.95
2023-05-19T07:18:58.037Z,5.15
2023-05-19T07:24:00.620Z,4.93
2023-05-19T07:29:04.094Z,6.63
2023-05-19T07:34:06.302Z,4.57
2023-05-19T07:39:08.697Z,4.78
2023-05-19T07:44:10.953Z,6.20
2023-05-19T07:49:13.201Z,5.53
2023-05-19T07:54:15.414Z,5.00
2023-05-19T07:59:17.573Z,4.78
2023-05-19T08:04:19.750Z,4.60
2023-05-19T08:09:21.928Z,3.90
2023-05-19T08:14:23.991Z,4.90
2023-05-19T08:19:26.165Z,4.53
2023-05-19T08:24:32.737Z,4.07
2023-05-19T08:29:34.927Z,4.10
2023-05-19T08:34:37.169Z,4.00
2023-05-19T08:39:39.886Z,4.20
2023-05-19T08:44:43.906Z,4.03
2023-05-19T08:49:50.485Z,3.88
2023-05-19T08:55:04.517Z,3.90
2023-05-19T09:00:11.878Z,3.75
2023-05-19T09:05:16.465Z,3.22
2023-05-19T09:10:18.650Z,3.50
2023-05-19T09:15:22.311Z,3.40
2023-05-19T09:20:24.466Z,3.70
2023-05-19T09:25:26.720Z,3.47
2023-05-19T09:30:28.841Z,3.80
2023-05-19T09:35:31.276Z,2.65
2023-05-19T09:40:33.681Z,2.00
2023-05-19T09:45:36.426Z,2.70
2023-05-19T09:50:38.590Z,1.55
2023-05-19T09:55:41.818Z,2.25
2023-05-19T10:00:44.799Z,1.90
2023-05-19T10:05:47.722Z,1.90
2023-05-19T10:10:49.910Z,2.15
2023-05-19T10:20:58.029Z,2.20
2023-05-19T10:26:04.960Z,3.00
2023-05-19T10:31:11.323Z,2.30
2023-05-19T10:36:38.178Z,2.28
2023-05-19T10:41:57.991Z,2.70
2023-05-19T10:47:00.390Z,2.60
2023-05-19T10:52:02.820Z,2.55
2023-05-19T10:57:05.140Z,1.98
2023-05-19T11:02:08.685Z,1.50
2023-05-19T11:07:10.910Z,2.10
2023-05-19T11:12:13.132Z,1.70
2023-05-19T11:17:16.271Z,2.28
2023-05-19T11:22:23.891Z,1.77
2023-05-19T11:27:33.822Z,1.80
2023-05-19T11:32:39.501Z,1.88
2023-05-19T11:37:42.682Z,1.40
2023-05-19T11:42:45.231Z,1.52
2023-05-19T11:48:00.272Z,1.38
2023-05-19T11:53:04.378Z,2.33
2023-05-19T11:58:07.191Z,1.50
2023-05-19T12:03:10.085Z,1.95
2023-05-19T12:08:12.708Z,1.92
2023-05-19T12:13:14.874Z,2.20
2023-05-19T12:18:18.111Z,1.77
2023-05-19T12:23:20.481Z,1.80
2023-05-19T12:28:22.648Z,1.63
2023-05-19T12:33:25.345Z,2.15
2023-05-19T12:38:27.474Z,1.60
2023-05-19T12:43:29.981Z,1.83
2023-05-19T12:48:32.100Z,1.73
2023-05-19T12:53:34.770Z,2.25
2023-05-19T12:58:37.463Z,1.90
2023-05-19T13:03:41.875Z,1.85
2023-05-19T13:08:47.291Z,1.80
2023-05-19T13:13:49.384Z,1.80
2023-05-19T13:18:51.695Z,1.75
2023-05-19T13:23:53.915Z,1.58
2023-05-19T13:28:56.711Z,1.40
2023-05-19T13:33:58.820Z,1.85
2023-05-19T13:39:01.233Z,1.55
2023-05-19T13:44:03.341Z,1.60
2023-05-19T13:49:05.554Z,1.27
2023-05-19T13:54:07.604Z,1.20
2023-05-19T13:59:09.880Z,1.73
2023-05-19T14:04:12.192Z,1.60
2023-05-19T14:09:15.005Z,1.50
2023-05-19T14:14:17.565Z,1.90
2023-05-19T14:19:20.142Z,1.45
2023-05-19T14:24:22.336Z,1.50
2023-05-19T14:29:24.384Z,1.88
2023-05-19T14:34:26.488Z,1.70
2023-05-19T14:39:30.032Z,1.55
2023-05-19T14:44:35.352Z,1.90
2023-05-19T14:49:37.515Z,2.15
2023-05-19T14:54:39.867Z,1.80
2023-05-19T14:59:42.543Z,2.13
2023-05-19T15:04:44.786Z,1.38
2023-05-19T15:09:47.017Z,1.63
2023-05-19T15:14:49.355Z,1.92
2023-05-19T15:19:51.548Z,1.90
2023-05-19T15:24:53.921Z,1.60
2023-05-19T15:29:56.133Z,1.85
2023-05-19T15:34:58.164Z,1.98
2023-05-19T15:40:00.350Z,2.10
2023-05-19T15:45:02.576Z,1.60
2023-05-19T15:50:04.973Z,1.75
2023-05-19T15:55:07.791Z,1.95
2023-05-19T16:00:10.843Z,1.77
2023-05-19T16:05:12.948Z,1.98
2023-05-19T16:10:15.094Z,2.05
2023-05-19T16:15:17.321Z,1.83
2023-05-19T16:20:21.300Z,1.92
2023-05-19T16:25:24.279Z,1.98
2023-05-19T16:30:27.923Z,1.80
2023-05-19T16:35:30.922Z,1.85
2023-05-19T16:40:33.496Z,1.70
2023-05-19T16:45:35.852Z,1.50
2023-05-19T16:50:39.671Z,1.67
2023-05-19T16:55:41.913Z,1.50
2023-05-19T17:00:44.163Z,1.73
2023-05-19T17:05:46.423Z,1.90
2023-05-19T17:10:48.813Z,1.65
2023-05-19T17:15:52.593Z,1.80
2023-05-19T17:20:55.121Z,1.67
2023-05-19T17:25:57.626Z,1.75
2023-05-19T17:30:59.847Z,1.85
2023-05-19T17:36:03.649Z,1.50
2023-05-19T17:41:09.906Z,1.52
2023-05-19T17:46:12.166Z,1.70
2023-05-19T17:51:14.376Z,1.63
2023-05-19T17:56:17.306Z,2.03
2023-05-19T18:01:23.690Z,1.80
2023-05-19T18:06:28.550Z,1.70
2023-05-19T18:11:30.674Z,1.52
2023-05-19T18:16:33.051Z,1.85
2023-05-19T18:21:35.180Z,1.70
2023-05-19T18:26:41.672Z,1.88
2023-05-19T18:31:44.071Z,1.83
2023-05-19T18:36:46.347Z,2.13
2023-05-19T18:41:49.613Z,1.60
2023-05-19T18:46:51.868Z,2.00
2023-05-19T18:51:54.417Z,2.15
2023-05-19T18:56:56.636Z,1.98
2023-05-19T19:01:58.754Z,2.60
2023-05-19T19:07:01.328Z,2.47
2023-05-19T19:12:03.578Z,2.42
2023-05-19T19:17:06.058Z,2.42
2023-05-19T19:22:08.341Z,2.80
2023-05-19T19:27:10.543Z,2.55
2023-05-19T19:32:12.643Z,2.67
2023-05-19T19:37:14.789Z,2.50
2023-05-19T19:42:16.861Z,2.53
2023-05-19T19:47:18.944Z,2.97
2023-05-19T19:52:21.170Z,2.83
2023-05-19T19:57:24.411Z,3.03
2023-05-19T20:02:26.795Z,4.65
2023-05-19T20:07:29.293Z,3.30
2023-05-19T20:12:31.489Z,5.07
2023-05-19T20:17:33.631Z,3.60
2023-05-19T20:22:37.123Z,4.22
2023-05-19T20:27:39.268Z,3.30
2023-05-19T20:32:41.493Z,3.95
2023-05-19T20:37:43.837Z,3.60
2023-05-19T20:42:46.302Z,3.08
2023-05-19T20:47:48.424Z,3.28
2023-05-19T20:52:50.519Z,3.17
2023-05-19T20:57:52.565Z,3.28
2023-05-19T21:02:54.689Z,3.40
2023-05-19T21:07:56.847Z,4.03
2023-05-19T21:12:59.017Z,2.67
2023-05-19T21:18:01.317Z,3.55
2023-05-19T21:23:03.849Z,3.03
2023-05-19T21:28:06.410Z,3.58
2023-05-19T21:33:08.636Z,3.75
2023-05-19T21:38:22.781Z,3.65
2023-05-19T21:43:26.180Z,3.42
2023-05-19T21:48:28.276Z,3.08
2023-05-19T21:53:31.558Z,3.08
2023-05-19T21:58:33.670Z,3.28
2023-05-19T22:03:35.888Z,2.90
2023-05-19T22:08:38.023Z,3.15
2023-05-19T22:13:41.170Z,3.03
2023-05-19T22:18:43.441Z,3.20
2023-05-19T22:23:45.552Z,3.00
2023-05-19T22:28:49.348Z,3.38
2023-05-19T22:33:51.702Z,3.65
2023-05-19T22:38:53.906Z,3.88
2023-05-19T22:43:56.400Z,3.60
2023-05-19T22:48:58.520Z,3.15
2023-05-19T22:54:00.677Z,3.05
2023-05-19T22:59:02.724Z,2.83
2023-05-19T23:04:05.016Z,2.72
2023-05-19T23:09:07.114Z,2.45
2023-05-19T23:14:09.187Z,3.10
2023-05-19T23:19:11.235Z,2.45
2023-05-19T23:24:13.609Z,2.95
2023-05-19T23:29:15.769Z,3.00
2023-05-19T23:34:17.922Z,2.90
2023-05-19T23:39:19.960Z,2.88
2023-05-19T23:44:22.015Z,3.33
2023-05-19T23:49:24.127Z,2.90
2023-05-19T23:54:26.703Z,3.03
2023-05-19T23:59:28.793Z,2.85
